sensor_id;sensor_type;location;lat;lon;timestamp;P1;P2;P0
74419;PMS5003;62855;50.718;-2.460;2023-03-23T00:00:07;10.89;10.76;
74419;PMS5003;62855;50.718;-2.460;2023-03-23T00:03:05;9.98;9.78;
74419;PMS5003;62855;50.718;-2.460;2023-03-23T00:06:06;9.08;8.80;
74419;PMS5003;62855;50.718;-2.460;2023-03-23T00:09:06;9.08;8.80;
74419;PMS5003;62855;50.718;-2.460;2023-03-23T00:12:05;9.08;8.80;
74419;PMS5003;62855;50.718;-2.460;2023-03-23T00:15:06;9.08;8.80;
74419;PMS5003;62855;50.718;-2.460;2023-03-23T00:18:05;9.08;8.80;
74419;PMS5003;62855;50.718;-2.460;2023-03-23T00:21:06;9.08;8.80;
74419;PMS5003;62855;50.718;-2.460;2023-03-23T00:24:07;8.17;8.80;
74419;PMS5003;62855;50.718;-2.460;2023-03-23T00:27:05;8.17;8.80;
74419;PMS5003;62855;50.718;-2.460;2023-03-23T00:30:06;8.17;7.82;
74419;PMS5003;62855;50.718;-2.460;2023-03-23T00:33:05;7.26;6.84;
74419;PMS5003;62855;50.718;-2.460;2023-03-23T00:36:05;7.26;6.84;
74419;PMS5003;62855;50.718;-2.460;2023-03-23T00:39:06;6.35;5.87;
74419;PMS5003;62855;50.718;-2.460;2023-03-23T00:42:05;6.35;5.87;
74419;PMS5003;62855;50.718;-2.460;2023-03-23T00:45:06;7.26;6.84;
74419;PMS5003;62855;50.718;-2.460;2023-03-23T00:48:06;7.26;6.84;
74419;PMS5003;62855;50.718;-2.460;2023-03-23T00:51:06;7.26;6.84;
74419;PMS5003;62855;50.718;-2.460;2023-03-23T00:54:05;8.17;7.82;
74419;PMS5003;62855;50.718;-2.460;2023-03-23T00:57:06;9.98;8.80;
74419;PMS5003;62855;50.718;-2.460;2023-03-23T01:00:06;9.08;9.78;
74419;PMS5003;62855;50.718;-2.460;2023-03-23T01:03:06;9.08;9.78;
74419;PMS5003;62855;50.718;-2.460;2023-03-23T01:06:06;9.98;9.78;
74419;PMS5003;62855;50.718;-2.460;2023-03-23T01:09:05;9.98;10.76;
74419;PMS5003;62855;50.718;-2.460;2023-03-23T01:12:05;9.98;10.76;
74419;PMS5003;62855;50.718;-2.460;2023-03-23T01:15:05;9.08;9.78;
74419;PMS5003;62855;50.718;-2.460;2023-03-23T01:18:05;9.98;10.76;
74419;PMS5003;62855;50.718;-2.460;2023-03-23T01:21:06;9.98;10.76;
74419;PMS5003;62855;50.718;-2.460;2023-03-23T01:24:06;9.98;10.76;
74419;PMS5003;62855;50.718;-2.460;2023-03-23T01:27:06;9.08;9.78;
74419;PMS5003;62855;50.718;-2.460;2023-03-23T01:30:07;11.80;12.71;
74419;PMS5003;62855;50.718;-2.460;2023-03-23T01:33:05;13.61;12.71;
74419;PMS5003;62855;50.718;-2.460;2023-03-23T01:36:06;18.15;12.71;
74419;PMS5003;62855;50.718;-2.460;2023-03-23T01:39:11;19.06;10.76;
74419;PMS5003;62855;50.718;-2.460;2023-03-23T01:42:07;17.24;9.78;
74419;PMS5003;62855;50.718;-2.460;2023-03-23T01:48:07;15.43;8.80;
74419;PMS5003;62855;50.718;-2.460;2023-03-23T01:51:06;15.43;11.73;
74419;PMS5003;62855;50.718;-2.460;2023-03-23T01:54:06;13.61;12.71;
74419;PMS5003;62855;50.718;-2.460;2023-03-23T01:57:06;12.71;10.76;
74419;PMS5003;62855;50.718;-2.460;2023-03-23T02:00:07;13.61;11.73;
74419;PMS5003;62855;50.718;-2.460;2023-03-23T02:03:06;11.80;8.80;
74419;PMS5003;62855;50.718;-2.460;2023-03-23T02:06:06;11.80;8.80;
74419;PMS5003;62855;50.718;-2.460;2023-03-23T02:09:05;11.80;8.80;
74419;PMS5003;62855;50.718;-2.460;2023-03-23T02:12:06;11.80;7.82;
74419;PMS5003;62855;50.718;-2.460;2023-03-23T02:15:06;11.80;8.80;
74419;PMS5003;62855;50.718;-2.460;2023-03-23T02:18:07;10.89;8.80;
74419;PMS5003;62855;50.718;-2.460;2023-03-23T02:21:25;10.89;8.80;
74419;PMS5003;62855;50.718;-2.460;2023-03-23T02:24:10;10.89;9.78;
74419;PMS5003;62855;50.718;-2.460;2023-03-23T02:27:06;9.98;8.80;
74419;PMS5003;62855;50.718;-2.460;2023-03-23T02:30:10;9.08;7.82;
74419;PMS5003;62855;50.718;-2.460;2023-03-23T02:33:17;7.26;6.84;
74419;PMS5003;62855;50.718;-2.460;2023-03-23T02:36:10;8.17;7.82;
74419;PMS5003;62855;50.718;-2.460;2023-03-23T02:39:08;8.17;7.82;
74419;PMS5003;62855;50.718;-2.460;2023-03-23T02:42:07;6.35;6.84;
74419;PMS5003;62855;50.718;-2.460;2023-03-23T02:45:06;5.45;5.87;
74419;PMS5003;62855;50.718;-2.460;2023-03-23T02:48:05;6.35;6.84;
74419;PMS5003;62855;50.718;-2.460;2023-03-23T02:51:05;7.26;7.82;
74419;PMS5003;62855;50.718;-2.460;2023-03-23T02:54:06;7.26;7.82;
74419;PMS5003;62855;50.718;-2.460;2023-03-23T02:57:06;6.35;5.87;
74419;PMS5003;62855;50.718;-2.460;2023-03-23T03:00:07;8.17;7.82;
74419;PMS5003;62855;50.718;-2.460;2023-03-23T03:03:05;7.26;6.84;
74419;PMS5003;62855;50.718;-2.460;2023-03-23T03:06:07;8.17;8.80;
74419;PMS5003;62855;50.718;-2.460;2023-03-23T03:09:07;7.26;6.84;
74419;PMS5003;62855;50.718;-2.460;2023-03-23T03:12:07;7.26;6.84;
74419;PMS5003;62855;50.718;-2.460;2023-03-23T03:15:10;6.35;6.84;
74419;PMS5003;62855;50.718;-2.460;2023-03-23T03:18:07;7.26;5.87;
74419;PMS5003;62855;50.718;-2.460;2023-03-23T03:21:06;7.26;6.84;
74419;PMS5003;62855;50.718;-2.460;2023-03-23T03:24:05;5.45;4.89;
74419;PMS5003;62855;50.718;-2.460;2023-03-23T03:27:05;5.45;4.89;
74419;PMS5003;62855;50.718;-2.460;2023-03-23T03:30:06;5.45;5.87;
74419;PMS5003;62855;50.718;-2.460;2023-03-23T03:33:05;6.35;6.84;
74419;PMS5003;62855;50.718;-2.460;2023-03-23T03:36:06;5.45;5.87;
74419;PMS5003;62855;50.718;-2.460;2023-03-23T03:39:07;5.45;5.87;
74419;PMS5003;62855;50.718;-2.460;2023-03-23T03:42:05;6.35;6.84;
74419;PMS5003;62855;50.718;-2.460;2023-03-23T03:45:06;8.17;7.82;
74419;PMS5003;62855;50.718;-2.460;2023-03-23T03:48:06;9.08;7.82;
74419;PMS5003;62855;50.718;-2.460;2023-03-23T03:51:05;9.08;7.82;
74419;PMS5003;62855;50.718;-2.460;2023-03-23T03:54:05;9.08;7.82;
74419;PMS5003;62855;50.718;-2.460;2023-03-23T03:57:05;9.08;6.84;
74419;PMS5003;62855;50.718;-2.460;2023-03-23T04:00:07;8.17;6.84;
74419;PMS5003;62855;50.718;-2.460;2023-03-23T04:03:06;9.08;6.84;
74419;PMS5003;62855;50.718;-2.460;2023-03-23T04:06:06;9.08;6.84;
74419;PMS5003;62855;50.718;-2.460;2023-03-23T04:09:05;9.08;6.84;
74419;PMS5003;62855;50.718;-2.460;2023-03-23T04:12:06;9.08;5.87;
74419;PMS5003;62855;50.718;-2.460;2023-03-23T04:15:06;9.98;7.82;
74419;PMS5003;62855;50.718;-2.460;2023-03-23T04:18:06;8.17;7.82;
74419;PMS5003;62855;50.718;-2.460;2023-03-23T04:21:06;7.26;6.84;
74419;PMS5003;62855;50.718;-2.460;2023-03-23T04:24:06;8.17;7.82;
74419;PMS5003;62855;50.718;-2.460;2023-03-23T04:27:05;8.17;7.82;
74419;PMS5003;62855;50.718;-2.460;2023-03-23T04:30:07;8.17;7.82;
74419;PMS5003;62855;50.718;-2.460;2023-03-23T04:33:06;9.08;7.82;
74419;PMS5003;62855;50.718;-2.460;2023-03-23T04:36:06;8.17;7.82;
74419;PMS5003;62855;50.718;-2.460;2023-03-23T04:39:06;9.08;7.82;
74419;PMS5003;62855;50.718;-2.460;2023-03-23T04:42:05;9.08;7.82;
74419;PMS5003;62855;50.718;-2.460;2023-03-23T04:45:07;9.08;7.82;
74419;PMS5003;62855;50.718;-2.460;2023-03-23T04:48:05;9.08;7.82;
74419;PMS5003;62855;50.718;-2.460;2023-03-23T04:51:06;9.08;7.82;
74419;PMS5003;62855;50.718;-2.460;2023-03-23T04:54:06;8.17;7.82;
74419;PMS5003;62855;50.718;-2.460;2023-03-23T04:57:06;8.17;7.82;
74419;PMS5003;62855;50.718;-2.460;2023-03-23T05:00:06;8.17;7.82;
74419;PMS5003;62855;50.718;-2.460;2023-03-23T05:03:06;8.17;7.82;
74419;PMS5003;62855;50.718;-2.460;2023-03-23T05:06:06;7.26;7.82;
74419;PMS5003;62855;50.718;-2.460;2023-03-23T05:09:05;7.26;7.82;
74419;PMS5003;62855;50.718;-2.460;2023-03-23T05:12:06;7.26;7.82;
74419;PMS5003;62855;50.718;-2.460;2023-03-23T05:15:06;7.26;7.82;
74419;PMS5003;62855;50.718;-2.460;2023-03-23T05:18:05;7.26;7.82;
74419;PMS5003;62855;50.718;-2.460;2023-03-23T05:21:05;8.17;8.80;
74419;PMS5003;62855;50.718;-2.460;2023-03-23T05:24:06;8.17;8.80;
74419;PMS5003;62855;50.718;-2.460;2023-03-23T05:27:06;9.08;8.80;
74419;PMS5003;62855;50.718;-2.460;2023-03-23T05:30:06;9.08;9.78;
74419;PMS5003;62855;50.718;-2.460;2023-03-23T05:33:05;9.08;9.78;
74419;PMS5003;62855;50.718;-2.460;2023-03-23T05:36:05;9.08;8.80;
74419;PMS5003;62855;50.718;-2.460;2023-03-23T05:39:06;9.08;8.80;
74419;PMS5003;62855;50.718;-2.460;2023-03-23T05:42:06;9.08;9.78;
74419;PMS5003;62855;50.718;-2.460;2023-03-23T05:45:07;8.17;8.80;
74419;PMS5003;62855;50.718;-2.460;2023-03-23T05:48:06;9.08;9.78;
74419;PMS5003;62855;50.718;-2.460;2023-03-23T05:51:06;9.08;8.80;
74419;PMS5003;62855;50.718;-2.460;2023-03-23T05:54:06;8.17;8.80;
74419;PMS5003;62855;50.718;-2.460;2023-03-23T05:57:06;8.17;8.80;
74419;PMS5003;62855;50.718;-2.460;2023-03-23T06:00:06;7.26;7.82;
74419;PMS5003;62855;50.718;-2.460;2023-03-23T06:03:05;7.26;7.82;
74419;PMS5003;62855;50.718;-2.460;2023-03-23T06:06:05;9.08;8.80;
74419;PMS5003;62855;50.718;-2.460;2023-03-23T06:09:05;8.17;7.82;
74419;PMS5003;62855;50.718;-2.460;2023-03-23T06:12:06;8.17;7.82;
74419;PMS5003;62855;50.718;-2.460;2023-03-23T06:15:07;9.08;8.80;
74419;PMS5003;62855;50.718;-2.460;2023-03-23T06:18:05;9.08;8.80;
74419;PMS5003;62855;50.718;-2.460;2023-03-23T06:21:06;9.08;8.80;
74419;PMS5003;62855;50.718;-2.460;2023-03-23T06:24:06;8.17;7.82;
74419;PMS5003;62855;50.718;-2.460;2023-03-23T06:27:06;7.26;7.82;
74419;PMS5003;62855;50.718;-2.460;2023-03-23T06:30:06;7.26;7.82;
74419;PMS5003;62855;50.718;-2.460;2023-03-23T06:33:05;7.26;6.84;
74419;PMS5003;62855;50.718;-2.460;2023-03-23T06:36:05;6.35;6.84;
74419;PMS5003;62855;50.718;-2.460;2023-03-23T06:39:06;6.35;6.84;
74419;PMS5003;62855;50.718;-2.460;2023-03-23T06:42:08;6.35;6.84;
74419;PMS5003;62855;50.718;-2.460;2023-03-23T06:45:06;5.45;5.87;
74419;PMS5003;62855;50.718;-2.460;2023-03-23T06:48:06;5.45;5.87;
74419;PMS5003;62855;50.718;-2.460;2023-03-23T06:51:06;6.35;5.87;
74419;PMS5003;62855;50.718;-2.460;2023-03-23T06:54:05;6.35;5.87;
74419;PMS5003;62855;50.718;-2.460;2023-03-23T06:57:06;7.26;6.84;
74419;PMS5003;62855;50.718;-2.460;2023-03-23T07:00:06;8.17;6.84;
74419;PMS5003;62855;50.718;-2.460;2023-03-23T07:03:06;8.17;6.84;
74419;PMS5003;62855;50.718;-2.460;2023-03-23T07:06:06;7.26;6.84;
74419;PMS5003;62855;50.718;-2.460;2023-03-23T07:09:05;7.26;6.84;
74419;PMS5003;62855;50.718;-2.460;2023-03-23T07:12:06;8.17;7.82;
74419;PMS5003;62855;50.718;-2.460;2023-03-23T07:15:06;9.08;7.82;
74419;PMS5003;62855;50.718;-2.460;2023-03-23T07:18:06;9.08;8.80;
74419;PMS5003;62855;50.718;-2.460;2023-03-23T07:21:06;8.17;7.82;
74419;PMS5003;62855;50.718;-2.460;2023-03-23T07:24:05;8.17;8.80;
74419;PMS5003;62855;50.718;-2.460;2023-03-23T07:27:06;8.17;8.80;
74419;PMS5003;62855;50.718;-2.460;2023-03-23T07:30:06;9.08;8.80;
74419;PMS5003;62855;50.718;-2.460;2023-03-23T07:33:05;9.08;9.78;
74419;PMS5003;62855;50.718;-2.460;2023-03-23T07:36:06;9.08;9.78;
74419;PMS5003;62855;50.718;-2.460;2023-03-23T07:39:05;9.98;9.78;
74419;PMS5003;62855;50.718;-2.460;2023-03-23T07:42:05;9.08;8.80;
74419;PMS5003;62855;50.718;-2.460;2023-03-23T07:45:06;8.17;7.82;
74419;PMS5003;62855;50.718;-2.460;2023-03-23T07:48:05;8.17;8.80;
74419;PMS5003;62855;50.718;-2.460;2023-03-23T07:51:06;9.08;8.80;
74419;PMS5003;62855;50.718;-2.460;2023-03-23T07:54:06;9.08;8.80;
74419;PMS5003;62855;50.718;-2.460;2023-03-23T07:57:05;9.98;8.80;
74419;PMS5003;62855;50.718;-2.460;2023-03-23T08:00:07;8.17;7.82;
74419;PMS5003;62855;50.718;-2.460;2023-03-23T08:03:05;8.17;7.82;
74419;PMS5003;62855;50.718;-2.460;2023-03-23T08:06:06;9.08;8.80;
74419;PMS5003;62855;50.718;-2.460;2023-03-23T08:09:06;9.08;8.80;
74419;PMS5003;62855;50.718;-2.460;2023-03-23T08:12:06;9.08;7.82;
74419;PMS5003;62855;50.718;-2.460;2023-03-23T08:15:06;9.08;8.80;
74419;PMS5003;62855;50.718;-2.460;2023-03-23T08:18:05;9.08;7.82;
74419;PMS5003;62855;50.718;-2.460;2023-03-23T08:21:06;8.17;6.84;
74419;PMS5003;62855;50.718;-2.460;2023-03-23T08:24:06;7.26;6.84;
74419;PMS5003;62855;50.718;-2.460;2023-03-23T08:27:06;6.35;5.87;
74419;PMS5003;62855;50.718;-2.460;2023-03-23T08:30:06;6.35;6.84;
74419;PMS5003;62855;50.718;-2.460;2023-03-23T08:33:06;6.35;6.84;
74419;PMS5003;62855;50.718;-2.460;2023-03-23T08:36:05;6.35;5.87;
74419;PMS5003;62855;50.718;-2.460;2023-03-23T08:39:05;5.45;5.87;
74419;PMS5003;62855;50.718;-2.460;2023-03-23T08:42:05;5.45;5.87;
74419;PMS5003;62855;50.718;-2.460;2023-03-23T08:45:06;6.35;6.84;
74419;PMS5003;62855;50.718;-2.460;2023-03-23T08:48:05;6.35;6.84;
74419;PMS5003;62855;50.718;-2.460;2023-03-23T08:51:05;6.35;6.84;
74419;PMS5003;62855;50.718;-2.460;2023-03-23T08:54:06;7.26;7.82;
74419;PMS5003;62855;50.718;-2.460;2023-03-23T08:57:06;7.26;7.82;
74419;PMS5003;62855;50.718;-2.460;2023-03-23T09:00:07;6.35;6.84;
74419;PMS5003;62855;50.718;-2.460;2023-03-23T09:03:05;9.08;7.82;
74419;PMS5003;62855;50.718;-2.460;2023-03-23T09:06:06;10.89;8.80;
74419;PMS5003;62855;50.718;-2.460;2023-03-23T09:09:05;10.89;9.78;
74419;PMS5003;62855;50.718;-2.460;2023-03-23T09:12:06;11.80;10.76;
74419;PMS5003;62855;50.718;-2.460;2023-03-23T09:15:06;10.89;9.78;
74419;PMS5003;62855;50.718;-2.460;2023-03-23T09:18:06;11.80;9.78;
74419;PMS5003;62855;50.718;-2.460;2023-03-23T09:21:06;11.80;10.76;
74419;PMS5003;62855;50.718;-2.460;2023-03-23T09:24:05;11.80;10.76;
74419;PMS5003;62855;50.718;-2.460;2023-03-23T09:27:05;11.80;9.78;
74419;PMS5003;62855;50.718;-2.460;2023-03-23T09:30:06;10.89;9.78;
74419;PMS5003;62855;50.718;-2.460;2023-03-23T09:33:06;9.08;9.78;
74419;PMS5003;62855;50.718;-2.460;2023-03-23T09:36:06;8.17;8.80;
74419;PMS5003;62855;50.718;-2.460;2023-03-23T09:39:05;8.17;8.80;
74419;PMS5003;62855;50.718;-2.460;2023-03-23T09:42:09;7.26;7.82;
74419;PMS5003;62855;50.718;-2.460;2023-03-23T09:45:09;9.08;8.80;
74419;PMS5003;62855;50.718;-2.460;2023-03-23T09:48:11;8.17;7.82;
74419;PMS5003;62855;50.718;-2.460;2023-03-23T09:51:08;8.17;7.82;
74419;PMS5003;62855;50.718;-2.460;2023-03-23T09:54:12;9.08;7.82;
74419;PMS5003;62855;50.718;-2.460;2023-03-23T09:57:10;9.08;7.82;
74419;PMS5003;62855;50.718;-2.460;2023-03-23T10:00:09;9.98;8.80;
74419;PMS5003;62855;50.718;-2.460;2023-03-23T10:03:06;9.08;7.82;
74419;PMS5003;62855;50.718;-2.460;2023-03-23T10:06:07;9.98;7.82;
74419;PMS5003;62855;50.718;-2.460;2023-03-23T10:09:06;9.08;6.84;
74419;PMS5003;62855;50.718;-2.460;2023-03-23T10:12:09;9.08;6.84;
74419;PMS5003;62855;50.718;-2.460;2023-03-23T10:15:11;9.08;7.82;
74419;PMS5003;62855;50.718;-2.460;2023-03-23T10:18:08;9.98;7.82;
74419;PMS5003;62855;50.718;-2.460;2023-03-23T10:21:06;9.98;7.82;
74419;PMS5003;62855;50.718;-2.460;2023-03-23T10:24:07;7.26;6.84;
74419;PMS5003;62855;50.718;-2.460;2023-03-23T10:27:10;8.17;6.84;
74419;PMS5003;62855;50.718;-2.460;2023-03-23T10:30:11;8.17;7.82;
74419;PMS5003;62855;50.718;-2.460;2023-03-23T10:33:10;10.89;7.82;
74419;PMS5003;62855;50.718;-2.460;2023-03-23T10:36:08;9.08;6.84;
74419;PMS5003;62855;50.718;-2.460;2023-03-23T10:39:08;9.08;6.84;
74419;PMS5003;62855;50.718;-2.460;2023-03-23T10:42:07;9.08;6.84;
74419;PMS5003;62855;50.718;-2.460;2023-03-23T10:45:11;9.98;7.82;
74419;PMS5003;62855;50.718;-2.460;2023-03-23T10:48:07;9.08;7.82;
74419;PMS5003;62855;50.718;-2.460;2023-03-23T10:51:09;9.08;7.82;
74419;PMS5003;62855;50.718;-2.460;2023-03-23T10:54:05;9.08;7.82;
74419;PMS5003;62855;50.718;-2.460;2023-03-23T10:57:12;9.08;6.84;
74419;PMS5003;62855;50.718;-2.460;2023-03-23T11:00:08;9.08;6.84;
74419;PMS5003;62855;50.718;-2.460;2023-03-23T11:03:17;5.45;5.87;
74419;PMS5003;62855;50.718;-2.460;2023-03-23T11:06:06;6.35;6.84;
74419;PMS5003;62855;50.718;-2.460;2023-03-23T11:09:09;6.35;6.84;
74419;PMS5003;62855;50.718;-2.460;2023-03-23T11:12:15;6.35;6.84;
74419;PMS5003;62855;50.718;-2.460;2023-03-23T11:15:21;6.35;6.84;
74419;PMS5003;62855;50.718;-2.460;2023-03-23T11:18:08;7.26;7.82;
74419;PMS5003;62855;50.718;-2.460;2023-03-23T11:21:06;8.17;7.82;
74419;PMS5003;62855;50.718;-2.460;2023-03-23T11:24:05;9.08;8.80;
74419;PMS5003;62855;50.718;-2.460;2023-03-23T11:27:05;9.08;8.80;
74419;PMS5003;62855;50.718;-2.460;2023-03-23T11:30:08;9.08;8.80;
74419;PMS5003;62855;50.718;-2.460;2023-03-23T11:33:05;9.98;8.80;
74419;PMS5003;62855;50.718;-2.460;2023-03-23T11:36:06;9.98;8.80;
74419;PMS5003;62855;50.718;-2.460;2023-03-23T11:42:11;9.08;8.80;
74419;PMS5003;62855;50.718;-2.460;2023-03-23T11:45:13;9.08;8.80;
74419;PMS5003;62855;50.718;-2.460;2023-03-23T11:48:10;9.08;7.82;
74419;PMS5003;62855;50.718;-2.460;2023-03-23T11:51:07;8.17;7.82;
74419;PMS5003;62855;50.718;-2.460;2023-03-23T11:54:09;7.26;7.82;
74419;PMS5003;62855;50.718;-2.460;2023-03-23T11:57:06;8.17;7.82;
74419;PMS5003;62855;50.718;-2.460;2023-03-23T12:00:11;8.17;7.82;
74419;PMS5003;62855;50.718;-2.460;2023-03-23T12:03:15;8.17;7.82;
74419;PMS5003;62855;50.718;-2.460;2023-03-23T12:06:06;7.26;7.82;
74419;PMS5003;62855;50.718;-2.460;2023-03-23T12:09:09;8.17;7.82;
74419;PMS5003;62855;50.718;-2.460;2023-03-23T12:12:09;8.17;6.84;
74419;PMS5003;62855;50.718;-2.460;2023-03-23T12:15:09;8.17;7.82;
74419;PMS5003;62855;50.718;-2.460;2023-03-23T12:18:14;8.17;7.82;
74419;PMS5003;62855;50.718;-2.460;2023-03-23T12:21:08;9.08;7.82;
74419;PMS5003;62855;50.718;-2.460;2023-03-23T12:24:08;9.08;7.82;
74419;PMS5003;62855;50.718;-2.460;2023-03-23T12:27:06;8.17;7.82;
74419;PMS5003;62855;50.718;-2.460;2023-03-23T12:30:14;8.17;7.82;
74419;PMS5003;62855;50.718;-2.460;2023-03-23T12:33:18;8.17;6.84;
74419;PMS5003;62855;50.718;-2.460;2023-03-23T12:36:08;8.17;7.82;
74419;PMS5003;62855;50.718;-2.460;2023-03-23T12:39:10;8.17;6.84;
74419;PMS5003;62855;50.718;-2.460;2023-03-23T12:42:07;8.17;7.82;
74419;PMS5003;62855;50.718;-2.460;2023-03-23T12:45:07;8.17;7.82;
74419;PMS5003;62855;50.718;-2.460;2023-03-23T12:48:07;8.17;7.82;
74419;PMS5003;62855;50.718;-2.460;2023-03-23T12:51:09;8.17;8.80;
74419;PMS5003;62855;50.718;-2.460;2023-03-23T12:54:08;7.26;7.82;
74419;PMS5003;62855;50.718;-2.460;2023-03-23T12:57:06;7.26;7.82;
74419;PMS5003;62855;50.718;-2.460;2023-03-23T13:00:07;7.26;7.82;
74419;PMS5003;62855;50.718;-2.460;2023-03-23T13:03:05;8.17;7.82;
74419;PMS5003;62855;50.718;-2.460;2023-03-23T13:06:07;8.17;8.80;
74419;PMS5003;62855;50.718;-2.460;2023-03-23T13:09:07;8.17;7.82;
74419;PMS5003;62855;50.718;-2.460;2023-03-23T13:12:05;8.17;7.82;
74419;PMS5003;62855;50.718;-2.460;2023-03-23T13:15:09;8.17;7.82;
74419;PMS5003;62855;50.718;-2.460;2023-03-23T13:18:08;9.08;7.82;
74419;PMS5003;62855;50.718;-2.460;2023-03-23T13:21:08;9.08;7.82;
74419;PMS5003;62855;50.718;-2.460;2023-03-23T13:24:06;9.98;8.80;
74419;PMS5003;62855;50.718;-2.460;2023-03-23T13:27:07;10.89;9.78;
74419;PMS5003;62855;50.718;-2.460;2023-03-23T13:33:06;12.71;11.73;
74419;PMS5003;62855;50.718;-2.460;2023-03-23T13:36:08;11.80;10.76;
74419;PMS5003;62855;50.718;-2.460;2023-03-23T13:39:06;11.80;11.73;
74419;PMS5003;62855;50.718;-2.460;2023-03-23T13:42:17;11.80;11.73;
74419;PMS5003;62855;50.718;-2.460;2023-03-23T13:45:07;10.89;11.73;
74419;PMS5003;62855;50.718;-2.460;2023-03-23T13:54:14;9.08;9.78;
74419;PMS5003;62855;50.718;-2.460;2023-03-23T14:00:11;8.17;8.80;
74419;PMS5003;62855;50.718;-2.460;2023-03-23T14:03:10;7.26;7.82;
74419;PMS5003;62855;50.718;-2.460;2023-03-23T14:06:06;8.17;8.80;
74419;PMS5003;62855;50.718;-2.460;2023-03-23T14:09:06;8.17;8.80;
74419;PMS5003;62855;50.718;-2.460;2023-03-23T14:12:06;8.17;7.82;
74419;PMS5003;62855;50.718;-2.460;2023-03-23T14:15:11;7.26;7.82;
74419;PMS5003;62855;50.718;-2.460;2023-03-23T14:18:06;9.08;8.80;
74419;PMS5003;62855;50.718;-2.460;2023-03-23T14:21:11;9.08;8.80;
74419;PMS5003;62855;50.718;-2.460;2023-03-23T14:24:09;9.08;8.80;
74419;PMS5003;62855;50.718;-2.460;2023-03-23T14:27:08;9.08;8.80;
74419;PMS5003;62855;50.718;-2.460;2023-03-23T14:30:07;9.08;9.78;
74419;PMS5003;62855;50.718;-2.460;2023-03-23T14:33:06;9.08;9.78;
74419;PMS5003;62855;50.718;-2.460;2023-03-23T14:36:06;8.17;8.80;
74419;PMS5003;62855;50.718;-2.460;2023-03-23T14:39:06;7.26;7.82;
74419;PMS5003;62855;50.718;-2.460;2023-03-23T14:42:06;8.17;8.80;
74419;PMS5003;62855;50.718;-2.460;2023-03-23T14:45:06;8.17;8.80;
74419;PMS5003;62855;50.718;-2.460;2023-03-23T14:48:06;7.26;7.82;
74419;PMS5003;62855;50.718;-2.460;2023-03-23T14:51:05;7.26;7.82;
74419;PMS5003;62855;50.718;-2.460;2023-03-23T14:54:07;8.17;8.80;
74419;PMS5003;62855;50.718;-2.460;2023-03-23T14:57:10;7.26;7.82;
74419;PMS5003;62855;50.718;-2.460;2023-03-23T15:00:10;7.26;7.82;
74419;PMS5003;62855;50.718;-2.460;2023-03-23T15:03:06;7.26;7.82;
74419;PMS5003;62855;50.718;-2.460;2023-03-23T15:06:06;8.17;8.80;
74419;PMS5003;62855;50.718;-2.460;2023-03-23T15:09:06;8.17;8.80;
74419;PMS5003;62855;50.718;-2.460;2023-03-23T15:12:05;8.17;7.82;
74419;PMS5003;62855;50.718;-2.460;2023-03-23T15:15:06;8.17;7.82;
74419;PMS5003;62855;50.718;-2.460;2023-03-23T15:18:14;8.17;7.82;
74419;PMS5003;62855;50.718;-2.460;2023-03-23T15:21:10;9.98;8.80;
74419;PMS5003;62855;50.718;-2.460;2023-03-23T15:27:11;9.08;8.80;
74419;PMS5003;62855;50.718;-2.460;2023-03-23T15:30:12;8.17;6.84;
74419;PMS5003;62855;50.718;-2.460;2023-03-23T15:33:10;8.17;7.82;
74419;PMS5003;62855;50.718;-2.460;2023-03-23T15:36:06;8.17;8.80;
74419;PMS5003;62855;50.718;-2.460;2023-03-23T15:39:05;9.08;9.78;
74419;PMS5003;62855;50.718;-2.460;2023-03-23T15:42:05;9.98;9.78;
74419;PMS5003;62855;50.718;-2.460;2023-03-23T15:48:10;9.98;9.78;
74419;PMS5003;62855;50.718;-2.460;2023-03-23T15:51:06;8.17;8.80;
74419;PMS5003;62855;50.718;-2.460;2023-03-23T15:54:07;8.17;8.80;
74419;PMS5003;62855;50.718;-2.460;2023-03-23T15:57:07;8.17;8.80;
74419;PMS5003;62855;50.718;-2.460;2023-03-23T16:00:07;9.08;9.78;
74419;PMS5003;62855;50.718;-2.460;2023-03-23T16:03:07;9.98;10.76;
74419;PMS5003;62855;50.718;-2.460;2023-03-23T16:06:08;9.98;10.76;
74419;PMS5003;62855;50.718;-2.460;2023-03-23T16:09:06;9.08;8.80;
74419;PMS5003;62855;50.718;-2.460;2023-03-23T16:12:08;9.08;8.80;
74419;PMS5003;62855;50.718;-2.460;2023-03-23T16:15:06;9.98;9.78;
74419;PMS5003;62855;50.718;-2.460;2023-03-23T16:18:05;10.89;9.78;
74419;PMS5003;62855;50.718;-2.460;2023-03-23T16:21:06;10.89;10.76;
74419;PMS5003;62855;50.718;-2.460;2023-03-23T16:24:05;10.89;10.76;
74419;PMS5003;62855;50.718;-2.460;2023-03-23T16:27:08;11.80;11.73;
74419;PMS5003;62855;50.718;-2.460;2023-03-23T16:30:12;10.89;10.76;
74419;PMS5003;62855;50.718;-2.460;2023-03-23T16:33:06;9.98;9.78;
74419;PMS5003;62855;50.718;-2.460;2023-03-23T16:36:06;9.08;8.80;
74419;PMS5003;62855;50.718;-2.460;2023-03-23T16:39:05;9.98;9.78;
74419;PMS5003;62855;50.718;-2.460;2023-03-23T16:42:05;10.89;9.78;
74419;PMS5003;62855;50.718;-2.460;2023-03-23T16:45:06;9.98;9.78;
74419;PMS5003;62855;50.718;-2.460;2023-03-23T16:48:05;9.08;8.80;
74419;PMS5003;62855;50.718;-2.460;2023-03-23T16:51:06;8.17;7.82;
74419;PMS5003;62855;50.718;-2.460;2023-03-23T16:54:05;9.08;8.80;
74419;PMS5003;62855;50.718;-2.460;2023-03-23T16:57:06;8.17;8.80;
74419;PMS5003;62855;50.718;-2.460;2023-03-23T17:00:08;9.98;8.80;
74419;PMS5003;62855;50.718;-2.460;2023-03-23T17:03:05;9.98;9.78;
74419;PMS5003;62855;50.718;-2.460;2023-03-23T17:06:06;13.61;10.76;
74419;PMS5003;62855;50.718;-2.460;2023-03-23T17:09:05;12.71;9.78;
74419;PMS5003;62855;50.718;-2.460;2023-03-23T17:12:06;13.61;10.76;
74419;PMS5003;62855;50.718;-2.460;2023-03-23T17:15:07;13.61;9.78;
74419;PMS5003;62855;50.718;-2.460;2023-03-23T17:18:06;16.34;12.71;
74419;PMS5003;62855;50.718;-2.460;2023-03-23T17:21:06;17.24;12.71;
74419;PMS5003;62855;50.718;-2.460;2023-03-23T17:24:06;16.34;12.71;
74419;PMS5003;62855;50.718;-2.460;2023-03-23T17:27:05;16.34;11.73;
74419;PMS5003;62855;50.718;-2.460;2023-03-23T17:30:06;15.43;11.73;
74419;PMS5003;62855;50.718;-2.460;2023-03-23T17:33:06;14.52;11.73;
74419;PMS5003;62855;50.718;-2.460;2023-03-23T17:36:06;11.80;10.76;
74419;PMS5003;62855;50.718;-2.460;2023-03-23T17:39:05;10.89;9.78;
74419;PMS5003;62855;50.718;-2.460;2023-03-23T17:42:05;9.08;9.78;
74419;PMS5003;62855;50.718;-2.460;2023-03-23T17:45:06;9.98;9.78;
74419;PMS5003;62855;50.718;-2.460;2023-03-23T17:48:06;8.17;7.82;
74419;PMS5003;62855;50.718;-2.460;2023-03-23T17:51:06;8.17;7.82;
74419;PMS5003;62855;50.718;-2.460;2023-03-23T17:54:06;9.08;8.80;
74419;PMS5003;62855;50.718;-2.460;2023-03-23T17:57:06;9.08;9.78;
74419;PMS5003;62855;50.718;-2.460;2023-03-23T18:00:06;9.98;9.78;
74419;PMS5003;62855;50.718;-2.460;2023-03-23T18:03:05;9.98;9.78;
74419;PMS5003;62855;50.718;-2.460;2023-03-23T18:06:06;9.08;8.80;
74419;PMS5003;62855;50.718;-2.460;2023-03-23T18:09:06;9.08;8.80;
74419;PMS5003;62855;50.718;-2.460;2023-03-23T18:12:06;9.98;8.80;
74419;PMS5003;62855;50.718;-2.460;2023-03-23T18:15:06;9.08;7.82;
74419;PMS5003;62855;50.718;-2.460;2023-03-23T18:18:05;9.08;7.82;
74419;PMS5003;62855;50.718;-2.460;2023-03-23T18:21:06;7.26;6.84;
74419;PMS5003;62855;50.718;-2.460;2023-03-23T18:24:06;7.26;6.84;
74419;PMS5003;62855;50.718;-2.460;2023-03-23T18:27:06;7.26;6.84;
74419;PMS5003;62855;50.718;-2.460;2023-03-23T18:30:07;7.26;6.84;
74419;PMS5003;62855;50.718;-2.460;2023-03-23T18:33:06;7.26;6.84;
74419;PMS5003;62855;50.718;-2.460;2023-03-23T18:36:06;8.17;7.82;
74419;PMS5003;62855;50.718;-2.460;2023-03-23T18:39:06;9.08;7.82;